sensor_id;sensor_type;location;lat;lon;timestamp;pressure;altitude;pressure_sealevel;temperature;humidity
74552;BME280;63025;55.472;38.432;2023-04-03T00:01:36;100037.56;;;8.24;66.49
74552;BME280;63025;55.472;38.432;2023-04-03T00:04:04;100029.31;;;8.19;65.81
74552;BME280;63025;55.472;38.432;2023-04-03T00:06:31;100029.31;;;8.19;65.79
74552;BME280;63025;55.472;38.432;2023-04-03T00:08:58;100027.19;;;8.14;66.13
74552;BME280;63025;55.472;38.432;2023-04-03T00:11:23;100030.06;;;8.13;66.21
74552;BME280;63025;55.472;38.432;2023-04-03T00:13:50;100029.41;;;8.10;65.97
74552;BME280;63025;55.472;38.432;2023-04-03T00:16:16;100038.28;;;8.11;66.33
74552;BME280;63025;55.472;38.432;2023-04-03T00:18:42;100032.09;;;8.10;66.60
74552;BME280;63025;55.472;38.432;2023-04-03T00:21:09;100027.56;;;8.11;66.23
74552;BME280;63025;55.472;38.432;2023-04-03T00:23:37;100038.28;;;8.11;66.77
74552;BME280;63025;55.472;38.432;2023-04-03T00:26:03;100036.63;;;8.10;66.15
74552;BME280;63025;55.472;38.432;2023-04-03T00:28:28;100026.13;;;8.08;66.69
74552;BME280;63025;55.472;38.432;2023-04-03T00:30:54;100033.53;;;8.06;66.57
74552;BME280;63025;55.472;38.432;2023-04-03T00:33:20;100029.19;;;8.05;66.73
74552;BME280;63025;55.472;38.432;2023-04-03T00:35:47;100022.38;;;8.03;66.89
74552;BME280;63025;55.472;38.432;2023-04-03T00:38:14;100021.53;;;8.02;66.84
74552;BME280;63025;55.472;38.432;2023-04-03T00:40:45;100032.25;;;8.02;66.64
74552;BME280;63025;55.472;38.432;2023-04-03T00:43:21;100024.59;;;7.99;66.91
74552;BME280;63025;55.472;38.432;2023-04-03T00:45:49;100020.28;;;7.98;67.34
74552;BME280;63025;55.472;38.432;2023-04-03T00:48:19;100014.47;;;7.95;67.16
74552;BME280;63025;55.472;38.432;2023-04-03T00:50:46;100024.34;;;7.94;67.52
74552;BME280;63025;55.472;38.432;2023-04-03T00:53:19;100029.06;;;7.92;67.51
74552;BME280;63025;55.472;38.432;2023-04-03T00:55:47;100024.91;;;7.90;67.64
74552;BME280;63025;55.472;38.432;2023-04-03T00:58:14;100023.66;;;7.86;67.14
74552;BME280;63025;55.472;38.432;2023-04-03T01:00:44;100025.69;;;7.84;67.80
74552;BME280;63025;55.472;38.432;2023-04-03T01:03:12;100026.25;;;7.79;67.74
74552;BME280;63025;55.472;38.432;2023-04-03T01:05:39;100019.03;;;7.73;68.02
74552;BME280;63025;55.472;38.432;2023-04-03T01:08:06;100029.91;;;7.71;67.97
74552;BME280;63025;55.472;38.432;2023-04-03T01:10:33;100024.13;;;7.68;67.98
74552;BME280;63025;55.472;38.432;2023-04-03T01:13:00;100027.19;;;7.65;68.36
74552;BME280;63025;55.472;38.432;2023-04-03T01:15:27;100030.41;;;7.60;68.19
74552;BME280;63025;55.472;38.432;2023-04-03T01:17:58;100022.97;;;7.56;68.56
74552;BME280;63025;55.472;38.432;2023-04-03T01:25:45;100017.03;;;7.39;69.41
74552;BME280;63025;55.472;38.432;2023-04-03T01:28:33;100018.63;;;7.33;69.70
74552;BME280;63025;55.472;38.432;2023-04-03T01:31:16;100018.75;;;7.25;70.00
74552;BME280;63025;55.472;38.432;2023-04-03T01:33:46;100021.13;;;7.20;69.99
74552;BME280;63025;55.472;38.432;2023-04-03T01:36:19;100022.72;;;7.15;69.95
74552;BME280;63025;55.472;38.432;2023-04-03T01:38:46;100030.66;;;7.08;70.14
74552;BME280;63025;55.472;38.432;2023-04-03T01:41:12;100026.44;;;6.99;70.52
74552;BME280;63025;55.472;38.432;2023-04-03T01:43:37;100022.84;;;6.92;70.79
74552;BME280;63025;55.472;38.432;2023-04-03T01:46:03;100024.22;;;6.88;71.25
74552;BME280;63025;55.472;38.432;2023-04-03T01:48:29;100027.00;;;6.80;71.05
74552;BME280;63025;55.472;38.432;2023-04-03T01:50:55;100019.53;;;6.75;71.52
74552;BME280;63025;55.472;38.432;2023-04-03T01:53:21;100022.78;;;6.71;71.84
74552;BME280;63025;55.472;38.432;2023-04-03T01:55:46;100022.50;;;6.66;72.12
74552;BME280;63025;55.472;38.432;2023-04-03T01:58:12;100027.56;;;6.60;72.41
74552;BME280;63025;55.472;38.432;2023-04-03T02:00:38;100016.34;;;6.50;72.61
74552;BME280;63025;55.472;38.432;2023-04-03T02:03:04;100027.19;;;6.49;72.82
74552;BME280;63025;55.472;38.432;2023-04-03T02:05:29;100024.63;;;6.41;72.68
74552;BME280;63025;55.472;38.432;2023-04-03T02:07:55;100020.81;;;6.35;72.77
74552;BME280;63025;55.472;38.432;2023-04-03T02:10:21;100019.56;;;6.31;72.89
74552;BME280;63025;55.472;38.432;2023-04-03T02:12:47;100025.25;;;6.28;73.43
74552;BME280;63025;55.472;38.432;2023-04-03T02:15:13;100023.50;;;6.20;73.44
74552;BME280;63025;55.472;38.432;2023-04-03T02:17:39;100030.75;;;6.12;73.35
74552;BME280;63025;55.472;38.432;2023-04-03T02:20:05;100036.25;;;6.10;73.52
74552;BME280;63025;55.472;38.432;2023-04-03T02:22:32;100039.47;;;6.06;73.80
74552;BME280;63025;55.472;38.432;2023-04-03T02:24:58;100040.03;;;6.01;73.88
74552;BME280;63025;55.472;38.432;2023-04-03T02:27:24;100038.72;;;5.97;74.25
74552;BME280;63025;55.472;38.432;2023-04-03T02:29:50;100038.22;;;5.94;74.02
74552;BME280;63025;55.472;38.432;2023-04-03T02:32:15;100035.94;;;5.91;74.29
74552;BME280;63025;55.472;38.432;2023-04-03T02:34:42;100027.59;;;5.85;74.26
74552;BME280;63025;55.472;38.432;2023-04-03T02:37:09;100033.94;;;5.84;74.64
74552;BME280;63025;55.472;38.432;2023-04-03T02:39:35;100027.38;;;5.72;74.36
74552;BME280;63025;55.472;38.432;2023-04-03T02:42:01;100033.69;;;5.71;74.75
74552;BME280;63025;55.472;38.432;2023-04-03T02:44:27;100028.09;;;5.66;74.75
74552;BME280;63025;55.472;38.432;2023-04-03T02:46:53;100036.94;;;5.67;74.95
74552;BME280;63025;55.472;38.432;2023-04-03T02:49:19;100035.09;;;5.67;74.94
74552;BME280;63025;55.472;38.432;2023-04-03T02:51:45;100038.59;;;5.68;74.90
74552;BME280;63025;55.472;38.432;2023-04-03T02:54:11;100029.09;;;5.65;74.97
74552;BME280;63025;55.472;38.432;2023-04-03T02:56:41;100033.59;;;5.65;75.02
74552;BME280;63025;55.472;38.432;2023-04-03T02:59:07;100043.44;;;5.64;74.98
74552;BME280;63025;55.472;38.432;2023-04-03T03:01:35;100035.78;;;5.61;75.04
74552;BME280;63025;55.472;38.432;2023-04-03T03:04:01;100033.13;;;5.61;75.09
74552;BME280;63025;55.472;38.432;2023-04-03T03:06:27;100037.44;;;5.62;75.41
74552;BME280;63025;55.472;38.432;2023-04-03T03:08:54;100040.09;;;5.62;75.51
74552;BME280;63025;55.472;38.432;2023-04-03T03:11:20;100041.41;;;5.66;75.18
74552;BME280;63025;55.472;38.432;2023-04-03T03:13:46;100043.91;;;5.68;75.37
74552;BME280;63025;55.472;38.432;2023-04-03T03:16:12;100048.59;;;5.66;75.40
74552;BME280;63025;55.472;38.432;2023-04-03T03:18:38;100044.25;;;5.65;75.73
74552;BME280;63025;55.472;38.432;2023-04-03T03:21:04;100048.59;;;5.66;75.46
74552;BME280;63025;55.472;38.432;2023-04-03T03:23:31;100041.41;;;5.66;75.36
74552;BME280;63025;55.472;38.432;2023-04-03T03:26:09;100054.59;;;5.68;75.53
74552;BME280;63025;55.472;38.432;2023-04-03T03:28:36;100057.69;;;5.71;75.66
74552;BME280;63025;55.472;38.432;2023-04-03T03:31:04;100057.19;;;5.76;75.58
74552;BME280;63025;55.472;38.432;2023-04-03T03:33:31;100053.50;;;5.77;75.33
74552;BME280;63025;55.472;38.432;2023-04-03T03:35:57;100050.84;;;5.77;75.36
74552;BME280;63025;55.472;38.432;2023-04-03T03:38:23;100047.63;;;5.81;75.40
74552;BME280;63025;55.472;38.432;2023-04-03T03:40:50;100056.09;;;5.85;75.28
74552;BME280;63025;55.472;38.432;2023-04-03T03:43:18;100054.94;;;5.87;75.38
74552;BME280;63025;55.472;38.432;2023-04-03T03:45:49;100059.56;;;5.94;75.42
74552;BME280;63025;55.472;38.432;2023-04-03T03:48:15;100048.53;;;5.97;75.37
74552;BME280;63025;55.472;38.432;2023-04-03T03:50:41;100058.13;;;6.06;75.36
74552;BME280;63025;55.472;38.432;2023-04-03T03:53:07;100055.78;;;6.11;75.03
74552;BME280;63025;55.472;38.432;2023-04-03T03:55:33;100051.38;;;6.18;74.96
74552;BME280;63025;55.472;38.432;2023-04-03T03:57:59;100051.47;;;6.24;75.15
74552;BME280;63025;55.472;38.432;2023-04-03T04:00:28;100044.22;;;6.33;74.76
74552;BME280;63025;55.472;38.432;2023-04-03T04:02:56;100044.31;;;6.40;75.04
74552;BME280;63025;55.472;38.432;2023-04-03T04:05:23;100045.41;;;6.45;74.40
74552;BME280;63025;55.472;38.432;2023-04-03T04:07:49;100059.72;;;6.52;74.89
74552;BME280;63025;55.472;38.432;2023-04-03T04:10:15;100046.63;;;6.57;74.54
74552;BME280;63025;55.472;38.432;2023-04-03T04:12:43;100055.38;;;6.66;74.33
74552;BME280;63025;55.472;38.432;2023-04-03T04:15:09;100054.84;;;6.71;73.92
74552;BME280;63025;55.472;38.432;2023-04-03T04:17:36;100051.88;;;6.80;74.48
74552;BME280;63025;55.472;38.432;2023-04-03T04:20:03;100056.09;;;6.89;73.81
74552;BME280;63025;55.472;38.432;2023-04-03T04:22:31;100049.81;;;6.97;73.87
74552;BME280;63025;55.472;38.432;2023-04-03T04:24:57;100045.41;;;7.04;73.58
74552;BME280;63025;55.472;38.432;2023-04-03T04:27:23;100049.47;;;7.15;73.93
74552;BME280;63025;55.472;38.432;2023-04-03T04:29:48;100056.16;;;7.25;73.50
74552;BME280;63025;55.472;38.432;2023-04-03T04:32:15;100063.69;;;7.36;73.29
74552;BME280;63025;55.472;38.432;2023-04-03T04:34:41;100054.16;;;7.49;72.89
74552;BME280;63025;55.472;38.432;2023-04-03T04:37:07;100059.00;;;7.60;72.79
74552;BME280;63025;55.472;38.432;2023-04-03T04:39:33;100053.16;;;7.71;72.68
74552;BME280;63025;55.472;38.432;2023-04-03T04:42:00;100057.44;;;7.87;72.50
74552;BME280;63025;55.472;38.432;2023-04-03T04:44:28;100061.03;;;8.00;72.14
74552;BME280;63025;55.472;38.432;2023-04-03T04:46:54;100059.50;;;8.13;71.98
74552;BME280;63025;55.472;38.432;2023-04-03T04:49:20;100064.59;;;8.29;71.18
74552;BME280;63025;55.472;38.432;2023-04-03T04:51:46;100059.75;;;8.39;71.01
74552;BME280;63025;55.472;38.432;2023-04-03T04:54:13;100061.50;;;8.53;70.65
74552;BME280;63025;55.472;38.432;2023-04-03T04:56:39;100059.53;;;8.68;69.98
74552;BME280;63025;55.472;38.432;2023-04-03T04:59:06;100065.81;;;8.82;69.39
74552;BME280;63025;55.472;38.432;2023-04-03T05:01:32;100065.47;;;8.92;68.83
74552;BME280;63025;55.472;38.432;2023-04-03T05:04:04;100056.81;;;8.96;68.08
74552;BME280;63025;55.472;38.432;2023-04-03T05:06:30;100053.75;;;9.06;67.41
74552;BME280;63025;55.472;38.432;2023-04-03T05:08:58;100058.16;;;9.20;67.17
74552;BME280;63025;55.472;38.432;2023-04-03T05:11:25;100054.91;;;9.31;66.47
74552;BME280;63025;55.472;38.432;2023-04-03T05:13:52;100058.22;;;9.33;66.44
74552;BME280;63025;55.472;38.432;2023-04-03T05:16:19;100055.16;;;9.49;65.75
74552;BME280;63025;55.472;38.432;2023-04-03T05:18:45;100063.22;;;9.56;65.38
74552;BME280;63025;55.472;38.432;2023-04-03T05:21:32;100062.03;;;9.72;65.27
74552;BME280;63025;55.472;38.432;2023-04-03T05:24:01;100058.94;;;9.81;64.91
74552;BME280;63025;55.472;38.432;2023-04-03T05:26:30;100056.91;;;9.90;64.39
74552;BME280;63025;55.472;38.432;2023-04-03T05:28:57;100061.66;;;10.01;64.21
74552;BME280;63025;55.472;38.432;2023-04-03T05:31:23;100060.03;;;10.13;64.30
74552;BME280;63025;55.472;38.432;2023-04-03T05:33:50;100050.75;;;10.22;63.56
74552;BME280;63025;55.472;38.432;2023-04-03T05:36:17;100053.84;;;10.33;63.28
74552;BME280;63025;55.472;38.432;2023-04-03T05:38:46;100053.44;;;10.36;63.12
74552;BME280;63025;55.472;38.432;2023-04-03T05:41:14;100064.81;;;10.38;62.54
74552;BME280;63025;55.472;38.432;2023-04-03T05:43:42;100060.66;;;10.42;62.36
74552;BME280;63025;55.472;38.432;2023-04-03T05:46:16;100062.53;;;10.48;62.24
74552;BME280;63025;55.472;38.432;2023-04-03T05:48:45;100070.78;;;10.46;62.01
74552;BME280;63025;55.472;38.432;2023-04-03T05:51:20;100059.19;;;10.59;61.91
74552;BME280;63025;55.472;38.432;2023-04-03T05:53:52;100061.69;;;10.67;61.74
74552;BME280;63025;55.472;38.432;2023-04-03T05:56:20;100063.50;;;10.73;61.40
74552;BME280;63025;55.472;38.432;2023-04-03T05:58:46;100068.88;;;10.73;61.29
74552;BME280;63025;55.472;38.432;2023-04-03T06:01:12;100071.56;;;10.80;61.00
74552;BME280;63025;55.472;38.432;2023-04-03T06:03:38;100076.94;;;10.73;61.11
74552;BME280;63025;55.472;38.432;2023-04-03T06:06:05;100075.06;;;10.80;61.11
74552;BME280;63025;55.472;38.432;2023-04-03T06:08:31;100071.56;;;10.86;61.02
74552;BME280;63025;55.472;38.432;2023-04-03T06:10:58;100075.91;;;10.87;60.67
74552;BME280;63025;55.472;38.432;2023-04-03T06:13:24;100078.78;;;10.99;60.72
74552;BME280;63025;55.472;38.432;2023-04-03T06:15:50;100076.66;;;11.08;60.65
74552;BME280;63025;55.472;38.432;2023-04-03T06:18:16;100081.44;;;11.06;60.38
74552;BME280;63025;55.472;38.432;2023-04-03T06:20:42;100084.50;;;11.16;60.37
74552;BME280;63025;55.472;38.432;2023-04-03T06:23:09;100086.53;;;11.27;60.18
74552;BME280;63025;55.472;38.432;2023-04-03T06:25:35;100084.47;;;11.22;59.72
74552;BME280;63025;55.472;38.432;2023-04-03T06:28:01;100085.91;;;11.25;59.58
74552;BME280;63025;55.472;38.432;2023-04-03T06:30:27;100082.38;;;11.31;59.52
74552;BME280;63025;55.472;38.432;2023-04-03T06:32:52;100083.78;;;11.40;59.16
74552;BME280;63025;55.472;38.432;2023-04-03T06:35:18;100082.09;;;11.52;59.07
74552;BME280;63025;55.472;38.432;2023-04-03T06:37:44;100086.59;;;11.58;58.70
74552;BME280;63025;55.472;38.432;2023-04-03T06:40:18;100081.09;;;11.85;58.55
74552;BME280;63025;55.472;38.432;2023-04-03T06:42:46;100079.88;;;11.81;58.14
74552;BME280;63025;55.472;38.432;2023-04-03T06:45:12;100080.22;;;11.91;58.38
74552;BME280;63025;55.472;38.432;2023-04-03T06:47:38;100077.19;;;12.12;57.94
74552;BME280;63025;55.472;38.432;2023-04-03T06:50:04;100080.34;;;12.34;57.45
74552;BME280;63025;55.472;38.432;2023-04-03T06:52:31;100076.25;;;12.49;56.92
74552;BME280;63025;55.472;38.432;2023-04-03T06:54:56;100076.97;;;12.38;56.37
74552;BME280;63025;55.472;38.432;2023-04-03T06:57:25;100079.13;;;12.55;56.81
74552;BME280;63025;55.472;38.432;2023-04-03T06:59:50;100079.25;;;12.60;56.28
74552;BME280;63025;55.472;38.432;2023-04-03T07:02:17;100084.34;;;12.49;56.43
74552;BME280;63025;55.472;38.432;2023-04-03T07:04:42;100083.25;;;12.32;56.28
74552;BME280;63025;55.472;38.432;2023-04-03T07:07:08;100085.94;;;12.32;56.63
74552;BME280;63025;55.472;38.432;2023-04-03T07:09:34;100086.09;;;12.37;56.23
74552;BME280;63025;55.472;38.432;2023-04-03T07:12:00;100076.97;;;12.38;56.42
74552;BME280;63025;55.472;38.432;2023-04-03T07:14:26;100092.50;;;12.43;56.22
74552;BME280;63025;55.472;38.432;2023-04-03T07:16:51;100093.63;;;12.29;56.34
74552;BME280;63025;55.472;38.432;2023-04-03T07:19:17;100097.47;;;12.39;56.82
74552;BME280;63025;55.472;38.432;2023-04-03T07:21:44;100098.00;;;12.55;56.97
74552;BME280;63025;55.472;38.432;2023-04-03T07:24:10;100097.50;;;12.64;56.84
74552;BME280;63025;55.472;38.432;2023-04-03T07:26:36;100099.97;;;12.66;56.51
74552;BME280;63025;55.472;38.432;2023-04-03T07:29:02;100103.31;;;12.61;56.04
74552;BME280;63025;55.472;38.432;2023-04-03T07:31:28;100105.03;;;12.56;56.61
74552;BME280;63025;55.472;38.432;2023-04-03T07:33:54;100111.91;;;12.52;56.41
74552;BME280;63025;55.472;38.432;2023-04-03T07:36:21;100112.00;;;12.38;56.46
74552;BME280;63025;55.472;38.432;2023-04-03T07:38:48;100113.56;;;12.53;56.65
74552;BME280;63025;55.472;38.432;2023-04-03T07:41:16;100119.22;;;12.44;56.00
74552;BME280;63025;55.472;38.432;2023-04-03T07:43:43;100110.78;;;12.59;55.96
74552;BME280;63025;55.472;38.432;2023-04-03T07:46:09;100111.41;;;12.61;55.79
74552;BME280;63025;55.472;38.432;2023-04-03T07:48:36;100107.66;;;12.87;55.46
74552;BME280;63025;55.472;38.432;2023-04-03T07:51:03;100106.97;;;13.10;55.22
74552;BME280;63025;55.472;38.432;2023-04-03T07:53:29;100103.34;;;13.22;54.09
74552;BME280;63025;55.472;38.432;2023-04-03T07:55:56;100110.34;;;13.60;53.92
74552;BME280;63025;55.472;38.432;2023-04-03T07:58:23;100111.06;;;13.85;53.50
74552;BME280;63025;55.472;38.432;2023-04-03T08:00:48;100115.91;;;13.95;52.56
74552;BME280;63025;55.472;38.432;2023-04-03T08:03:15;100111.50;;;14.12;52.05
74552;BME280;63025;55.472;38.432;2023-04-03T08:05:46;100109.75;;;14.59;51.41
74552;BME280;63025;55.472;38.432;2023-04-03T08:08:15;100112.09;;;15.02;50.42
74552;BME280;63025;55.472;38.432;2023-04-03T08:10:41;100108.44;;;14.85;49.17
74552;BME280;63025;55.472;38.432;2023-04-03T08:13:08;100105.25;;;15.12;49.79
74552;BME280;63025;55.472;38.432;2023-04-03T08:15:37;100103.44;;;15.81;48.63
74552;BME280;63025;55.472;38.432;2023-04-03T08:18:03;100114.44;;;16.02;47.56
74552;BME280;63025;55.472;38.432;2023-04-03T08:20:29;100109.28;;;16.18;47.16
74552;BME280;63025;55.472;38.432;2023-04-03T08:22:55;100102.81;;;15.90;46.94
74552;BME280;63025;55.472;38.432;2023-04-03T08:25:21;100111.44;;;15.87;47.56
74552;BME280;63025;55.472;38.432;2023-04-03T08:27:46;100111.69;;;15.86;48.08
74552;BME280;63025;55.472;38.432;2023-04-03T08:30:12;100111.88;;;15.96;48.18
74552;BME280;63025;55.472;38.432;2023-04-03T08:32:38;100121.16;;;16.00;47.96
74552;BME280;63025;55.472;38.432;2023-04-03T08:35:05;100115.00;;;16.04;48.16
74552;BME280;63025;55.472;38.432;2023-04-03T08:37:31;100121.63;;;15.68;47.95
74552;BME280;63025;55.472;38.432;2023-04-03T08:39:57;100122.25;;;15.47;48.46
74552;BME280;63025;55.472;38.432;2023-04-03T08:50:45;100124.69;;;14.85;49.74
74552;BME280;63025;55.472;38.432;2023-04-03T08:53:19;100125.28;;;14.99;49.60
74552;BME280;63025;55.472;38.432;2023-04-03T08:55:50;100110.78;;;15.17;49.97
74552;BME280;63025;55.472;38.432;2023-04-03T08:58:28;100118.78;;;15.23;49.42
74552;BME280;63025;55.472;38.432;2023-04-03T09:01:21;100117.22;;;15.27;49.56
74552;BME280;63025;55.472;38.432;2023-04-03T09:03:50;100134.09;;;15.06;48.79
74552;BME280;63025;55.472;38.432;2023-04-03T09:06:20;100130.31;;;15.07;49.15
74552;BME280;63025;55.472;38.432;2023-04-03T09:14:13;100140.44;;;14.88;48.81
74552;BME280;63025;55.472;38.432;2023-04-03T09:21:45;100137.97;;;15.10;49.14
74552;BME280;63025;55.472;38.432;2023-04-03T09:24:13;100140.56;;;15.17;48.99
74552;BME280;63025;55.472;38.432;2023-04-03T09:26:48;100134.53;;;15.26;49.00
74552;BME280;63025;55.472;38.432;2023-04-03T09:29:22;100132.16;;;15.41;48.64
74552;BME280;63025;55.472;38.432;2023-04-03T09:31:51;100129.31;;;15.60;48.20
74552;BME280;63025;55.472;38.432;2023-04-03T09:34:25;100132.25;;;15.58;48.11
74552;BME280;63025;55.472;38.432;2023-04-03T09:36:54;100129.56;;;15.58;48.20
74552;BME280;63025;55.472;38.432;2023-04-03T09:39:24;100145.63;;;15.13;47.95
74552;BME280;63025;55.472;38.432;2023-04-03T09:42:01;100140.81;;;15.03;48.41
74552;BME280;63025;55.472;38.432;2023-04-03T09:44:38;100139.63;;;14.99;48.27
74552;BME280;63025;55.472;38.432;2023-04-03T09:49:48;100140.09;;;14.96;49.10
74552;BME280;63025;55.472;38.432;2023-04-03T09:52:24;100143.41;;;14.98;49.68
74552;BME280;63025;55.472;38.432;2023-04-03T09:54:50;100142.47;;;14.93;49.46
74552;BME280;63025;55.472;38.432;2023-04-03T09:57:16;100146.31;;;14.62;49.10
74552;BME280;63025;55.472;38.432;2023-04-03T10:00:00;100149.63;;;14.34;49.39
74552;BME280;63025;55.472;38.432;2023-04-03T10:02:36;100145.53;;;14.31;49.76
74552;BME280;63025;55.472;38.432;2023-04-03T10:05:04;100140.72;;;14.04;49.97
74552;BME280;63025;55.472;38.432;2023-04-03T10:07:35;100138.94;;;13.98;49.98
74552;BME280;63025;55.472;38.432;2023-04-03T10:12:40;100143.69;;;14.14;50.60
74552;BME280;63025;55.472;38.432;2023-04-03T10:15:14;100141.38;;;14.17;50.71
74552;BME280;63025;55.472;38.432;2023-04-03T10:18:00;100144.44;;;14.21;50.95
74552;BME280;63025;55.472;38.432;2023-04-03T10:20:43;100144.56;;;14.26;50.43
74552;BME280;63025;55.472;38.432;2023-04-03T10:23:44;100135.97;;;14.17;50.47
74552;BME280;63025;55.472;38.432;2023-04-03T10:29:02;100142.81;;;14.31;51.12
74552;BME280;63025;55.472;38.432;2023-04-03T10:31:59;100149.34;;;14.42;50.79
74552;BME280;63025;55.472;38.432;2023-04-03T10:34:40;100146.53;;;14.49;50.73
74552;BME280;63025;55.472;38.432;2023-04-03T10:38:15;100146.66;;;14.54;50.17
74552;BME280;63025;55.472;38.432;2023-04-03T10:43:09;100147.16;;;14.74;50.04
74552;BME280;63025;55.472;38.432;2023-04-03T10:48:18;100138.81;;;14.99;49.60
74552;BME280;63025;55.472;38.432;2023-04-03T10:53:41;100140.31;;;15.18;48.77
74552;BME280;63025;55.472;38.432;2023-04-03T10:58:49;100141.75;;;15.09;48.26
74552;BME280;63025;55.472;38.432;2023-04-03T11:01:26;100144.00;;;15.12;48.79
74552;BME280;63025;55.472;38.432;2023-04-03T11:03:57;100119.25;;;15.20;48.73
74552;BME280;63025;55.472;38.432;2023-04-03T11:06:26;100135.97;;;15.17;48.40
74552;BME280;63025;55.472;38.432;2023-04-03T11:09:01;100138.09;;;15.15;48.04
74552;BME280;63025;55.472;38.432;2023-04-03T11:11:34;100125.03;;;15.24;47.82
74552;BME280;63025;55.472;38.432;2023-04-03T11:14:13;100130.53;;;15.17;47.22
74552;BME280;63025;55.472;38.432;2023-04-03T11:16:45;100129.38;;;15.13;46.82
74552;BME280;63025;55.472;38.432;2023-04-03T11:19:21;100129.03;;;14.98;46.99
74552;BME280;63025;55.472;38.432;2023-04-03T11:22:37;100127.63;;;15.07;47.49
74552;BME280;63025;55.472;38.432;2023-04-03T11:25:14;100134.91;;;15.18;48.19
74552;BME280;63025;55.472;38.432;2023-04-03T11:28:04;100119.84;;;15.22;47.50
74552;BME280;63025;55.472;38.432;2023-04-03T11:36:12;100123.50;;;14.69;46.97
74552;BME280;63025;55.472;38.432;2023-04-03T11:38:45;100131.88;;;14.80;47.43
74552;BME280;63025;55.472;38.432;2023-04-03T11:41:13;100136.31;;;14.86;47.34
74552;BME280;63025;55.472;38.432;2023-04-03T11:46:22;100129.97;;;14.68;46.46
74552;BME280;63025;55.472;38.432;2023-04-03T11:48:50;100134.78;;;14.66;45.87
74552;BME280;63025;55.472;38.432;2023-04-03T11:53:54;100133.50;;;14.69;45.89
74552;BME280;63025;55.472;38.432;2023-04-03T12:04:18;100131.03;;;14.67;47.20
74552;BME280;63025;55.472;38.432;2023-04-03T12:06:49;100132.56;;;14.63;47.50
74552;BME280;63025;55.472;38.432;2023-04-03T12:09:32;100132.88;;;14.55;47.72
74552;BME280;63025;55.472;38.432;2023-04-03T12:12:01;100137.00;;;14.46;47.43
74552;BME280;63025;55.472;38.432;2023-04-03T12:14:46;100134.84;;;14.37;47.76
74552;BME280;63025;55.472;38.432;2023-04-03T12:17:22;100134.94;;;14.30;47.46
74552;BME280;63025;55.472;38.432;2023-04-03T12:19:48;100135.84;;;14.24;47.70
74552;BME280;63025;55.472;38.432;2023-04-03T12:22:16;100136.78;;;14.18;47.80
74552;BME280;63025;55.472;38.432;2023-04-03T12:24:55;100138.88;;;14.16;48.37
74552;BME280;63025;55.472;38.432;2023-04-03T12:27:23;100133.59;;;14.09;48.22
74552;BME280;63025;55.472;38.432;2023-04-03T12:30:21;100130.75;;;14.04;48.04
74552;BME280;63025;55.472;38.432;2023-04-03T12:35:47;100126.59;;;14.02;48.59
74552;BME280;63025;55.472;38.432;2023-04-03T12:46:43;100140.00;;;13.96;48.97
74552;BME280;63025;55.472;38.432;2023-04-03T12:49:40;100137.53;;;13.95;49.07
74552;BME280;63025;55.472;38.432;2023-04-03T12:52:40;100132.56;;;13.92;48.71
74552;BME280;63025;55.472;38.432;2023-04-03T12:55:14;100143.03;;;13.88;48.78
74552;BME280;63025;55.472;38.432;2023-04-03T12:57:40;100135.97;;;13.87;49.12
74552;BME280;63025;55.472;38.432;2023-04-03T13:00:27;100132.22;;;13.88;49.60
74552;BME280;63025;55.472;38.432;2023-04-03T13:02:53;100127.25;;;13.85;49.78
74552;BME280;63025;55.472;38.432;2023-04-03T13:05:21;100129.84;;;13.80;49.54
74552;BME280;63025;55.472;38.432;2023-04-03T13:08:10;100128.63;;;13.76;49.52
74552;BME280;63025;55.472;38.432;2023-04-03T13:10:49;100133.44;;;13.74;49.61
74552;BME280;63025;55.472;38.432;2023-04-03T13:13:16;100132.78;;;13.79;49.75
74552;BME280;63025;55.472;38.432;2023-04-03T13:15:44;100123.97;;;13.83;49.76
74552;BME280;63025;55.472;38.432;2023-04-03T13:20:50;100126.34;;;13.91;50.02
74552;BME280;63025;55.472;38.432;2023-04-03T13:23:17;100127.53;;;13.95;50.31
74552;BME280;63025;55.472;38.432;2023-04-03T13:25:47;100137.91;;;13.99;50.14
74552;BME280;63025;55.472;38.432;2023-04-03T13:28:19;100136.38;;;14.03;50.02
74552;BME280;63025;55.472;38.432;2023-04-03T13:33:34;100134.88;;;14.07;49.94
74552;BME280;63025;55.472;38.432;2023-04-03T13:36:31;100135.81;;;14.12;49.51
74552;BME280;63025;55.472;38.432;2023-04-03T13:41:39;100134.09;;;14.18;49.70
74552;BME280;63025;55.472;38.432;2023-04-03T13:47:14;100126.09;;;14.11;49.71
74552;BME280;63025;55.472;38.432;2023-04-03T13:49:55;100128.19;;;14.09;49.68
74552;BME280;63025;55.472;38.432;2023-04-03T13:52:34;100127.81;;;14.06;49.72
74552;BME280;63025;55.472;38.432;2023-04-03T13:55:16;100128.13;;;13.98;49.80
74552;BME280;63025;55.472;38.432;2023-04-03T13:57:51;100126.94;;;13.93;49.63
74552;BME280;63025;55.472;38.432;2023-04-03T14:03:37;100126.13;;;13.93;49.49
74552;BME280;63025;55.472;38.432;2023-04-03T14:06:10;100125.06;;;13.94;49.86
74552;BME280;63025;55.472;38.432;2023-04-03T14:08:36;100122.84;;;13.91;49.54
74552;BME280;63025;55.472;38.432;2023-04-03T14:11:02;100116.47;;;13.85;49.36
74552;BME280;63025;55.472;38.432;2023-04-03T14:13:31;100121.97;;;13.79;49.16
74552;BME280;63025;55.472;38.432;2023-04-03T14:15:57;100116.19;;;13.75;49.24
74552;BME280;63025;55.472;38.432;2023-04-03T14:18:23;100115.59;;;13.73;49.36
74552;BME280;63025;55.472;38.432;2023-04-03T14:20:49;100116.63;;;13.72;49.68
74552;BME280;63025;55.472;38.432;2023-04-03T14:23:15;100113.19;;;13.65;49.84
74552;BME280;63025;55.472;38.432;2023-04-03T14:25:41;100119.28;;;13.60;50.08